Jensen Beach, FL

10:49 AM EST del 19 Dicembre 2014 (GMT -0500)
Witham | Change Station
CLOSE
Current Station
Aeroporto
Location: Stuart,
Altitudine: 20 ft
Stazioni meteo nelle vicinanze

Alt. 20 ft 27.18 °N, 80.22 °W | Updated 1 hour ago

Sereno
Sereno
66 °F
Sembra 66 °F
N
5
Vento Variabile Vento da Variabile

Oggi
Massima -- | Minima -- °F
--% Possibilità di precip.
Ieri
Massima -- | Minima -- °F
Precip. -- in
7:05 AM 5:30 PM
Luna calante, 7% visible
Pressione 30.14 in
Visibilità 7.0 miglia
Nuvole Sereno
Punto di rugiada 57 °F
Umidità 73%
Piovosità 0.00 in
Spessore del manto nevoso Non disponibile.
Raggi UV 3 fuori da 12
Polline 4.00 fuori da 12
Qualità dell'aria Non disponibile.
Flu Activity Non disponibile.
METAR KSUA 191447Z VRB04KT 7SM SKC 19/14 A3014

More Conditions Fewer Conditions

Pressione 30.14 in
Visibilità 7.0 miglia
Nuvole Sereno
Punto di rugiada 57 °F
Umidità 73%
Piovosità 0.00 in
Spessore del manto nevoso Non disponibile.
Raggi UV 3 fuori da 12
Polline 4.00 fuori da 12
Qualità dell'aria Non disponibile.
Flu Activity Non disponibile.
METAR KSUA 191447Z VRB04KT 7SM SKC 19/14 A3014

More Conditions Fewer Conditions

10-Day Weather Forecast

Almanac

Astronomia

Dec. 19, 2014 Alba Tramonto
Ora attuale
Crepuscolo civile
Crepuscolo nautico
Crepuscolo astronomico
Luna
Estensione della luce visibile
Lunghezza del giorno
Tomorrow will be .
, % of the Moon is Illuminated

Gli estremi di oggi

State Highs State Lows

Community

WunderPhotos

Upload Photos

1,778,997 foto caricate!

WunderBlogs® & News

Nearby

Qualità dell'aria

  Qualità dell'aria Indice AQ Inquinante
Not available.

Profondità neve

Stazione Profondità Altitudine

Attività sismica

Città  Distanza Mag. Data & Ora
Minimo Magnitudo Mostrato è 2.5.

Temperature delle acque costiere

Località Temperatura

Stazioni meteo nelle vicinanze